CheckWX is a tool to help pilots better visualize weather data.  It is not intended as a substitute for an official pre-flight weather briefing.

22:37:05 UTC

LKTB METAR
Brno-Tuřany Airport
Brno, Czech Republic
Current

37 mins ago

LKTB 202200Z 05004KT CAVOK 24/15 Q1016 NOSIG
Observed
Jul-20 @ 22:00 UTC
Wind
  • 050° at 4 KTS
Visibility
10,000+ meters
Flight Rules
VFR
Cloud Levels
  • Clear skies
Temperature
24°C / 75°F
Dewpoint
15°C / 59°F
Humidity
57%
Altimeter
30" Hg
Pressure
1015.92 hPa
Previous

1 hour ago

LKTB 202130Z 06004KT CAVOK 24/14 Q1015 NOSIG
Observed
Jul-20 @ 21:30 UTC
Wind
  • 060° at 4 KTS
Visibility
10,000+ meters
Flight Rules
VFR
Cloud Levels
  • Clear skies
Temperature
24°C / 75°F
Dewpoint
14°C / 57°F
Humidity
54%
Altimeter
29.97" Hg
Pressure
1014.92 hPa
Previous

2 hours ago

LKTB 202100Z VRB02KT CAVOK 22/14 Q1016 NOSIG
Observed
Jul-20 @ 21:00 UTC
Wind
  • Variable at 2 KTS
Visibility
10,000+ meters
Flight Rules
VFR
Cloud Levels
  • Clear skies
Temperature
22°C / 72°F
Dewpoint
14°C / 57°F
Humidity
61%
Altimeter
30" Hg
Pressure
1015.92 hPa